createdAt,value
2023-05-07T00:00:09.624Z,25.30
2023-05-07T00:00:38.649Z,27.48
2023-05-07T00:01:08.659Z,26.95
2023-05-07T00:01:21.155Z,26.15
2023-05-07T00:01:35.048Z,25.27
2023-05-07T00:01:47.975Z,24.20
2023-05-07T00:02:00.738Z,22.48
2023-05-07T00:02:13.298Z,22.60
2023-05-07T00:02:26.528Z,23.92
2023-05-07T00:02:39.395Z,26.25
2023-05-07T00:02:53.373Z,28.27
2023-05-07T00:03:06.593Z,26.15
2023-05-07T00:03:20.242Z,25.45
2023-05-07T00:03:33.525Z,26.45
2023-05-07T00:03:46.392Z,25.33
2023-05-07T00:03:59.237Z,23.60
2023-05-07T00:04:12.100Z,23.00
2023-05-07T00:04:25.978Z,23.42
2023-05-07T00:04:40.020Z,22.70
2023-05-07T00:04:53.122Z,24.00
2023-05-07T00:05:06.858Z,25.08
2023-05-07T00:05:19.691Z,24.33
2023-05-07T00:05:32.312Z,24.05
2023-05-07T00:05:45.053Z,25.25
2023-05-07T00:05:58.634Z,24.20
2023-05-07T00:06:13.674Z,22.13
2023-05-07T00:06:27.715Z,22.35
2023-05-07T00:06:40.836Z,23.27
2023-05-07T00:06:53.355Z,22.25
2023-05-07T00:07:06.591Z,21.05
2023-05-07T00:07:19.369Z,21.58
2023-05-07T00:07:31.833Z,21.50
2023-05-07T00:07:45.374Z,21.58
2023-05-07T00:07:59.629Z,22.13
2023-05-07T00:08:12.642Z,22.55
2023-05-07T00:08:25.195Z,21.85
2023-05-07T00:08:38.274Z,21.23
2023-05-07T00:08:50.928Z,21.45
2023-05-07T00:09:04.579Z,22.27
2023-05-07T00:09:17.683Z,23.35
2023-05-07T00:09:31.190Z,22.52
2023-05-07T00:09:43.754Z,20.52
2023-05-07T00:09:56.290Z,20.45
2023-05-07T00:10:09.900Z,21.05
2023-05-07T00:10:22.642Z,20.80
2023-05-07T00:10:35.128Z,21.02
2023-05-07T00:10:47.837Z,20.25
2023-05-07T00:11:00.476Z,18.40
2023-05-07T00:11:13.015Z,19.48
2023-05-07T00:11:26.774Z,19.27
2023-05-07T00:11:39.385Z,20.95
2023-05-07T00:11:52.138Z,21.75
2023-05-07T00:12:04.788Z,19.58
2023-05-07T00:12:17.365Z,19.83
2023-05-07T00:12:32.501Z,20.45
2023-05-07T00:12:45.412Z,20.27
2023-05-07T00:12:58.972Z,18.98
2023-05-07T00:13:11.735Z,20.00
2023-05-07T00:13:24.576Z,21.75
2023-05-07T00:13:37.397Z,22.88
2023-05-07T00:13:49.889Z,24.45
2023-05-07T00:14:02.415Z,23.55
2023-05-07T00:14:14.975Z,23.50
2023-05-07T00:14:27.544Z,23.90
2023-05-07T00:14:41.090Z,25.10
2023-05-07T00:14:53.622Z,26.83
2023-05-07T00:15:07.763Z,27.65
2023-05-07T00:15:20.781Z,27.42
2023-05-07T00:15:33.295Z,27.05
2023-05-07T00:15:45.794Z,27.55
2023-05-07T00:15:58.375Z,28.27
2023-05-07T00:16:11.954Z,26.80
2023-05-07T00:16:24.694Z,24.27
2023-05-07T00:16:38.817Z,23.40
2023-05-07T00:16:51.393Z,23.40
2023-05-07T00:17:04.172Z,23.25
2023-05-07T00:17:16.694Z,22.73
2023-05-07T00:17:29.505Z,23.42
2023-05-07T00:17:43.346Z,25.17
2023-05-07T00:17:57.128Z,24.10
2023-05-07T00:18:09.745Z,22.10
2023-05-07T00:18:23.707Z,23.20
2023-05-07T00:18:36.209Z,22.35
2023-05-07T00:18:48.810Z,20.73
2023-05-07T00:19:02.652Z,21.25
2023-05-07T00:19:15.618Z,21.98
2023-05-07T00:19:28.317Z,22.48
2023-05-07T00:19:40.815Z,22.98
2023-05-07T00:19:53.333Z,22.48
2023-05-07T00:20:06.830Z,22.52
2023-05-07T00:20:19.402Z,23.35
2023-05-07T00:20:34.377Z,24.17
2023-05-07T00:20:48.389Z,25.06
2023-05-07T00:21:01.126Z,24.27
2023-05-07T00:21:13.615Z,23.15
2023-05-07T00:21:27.732Z,22.70
2023-05-07T00:21:40.440Z,24.10
2023-05-07T00:21:54.551Z,23.00
2023-05-07T00:22:07.120Z,22.95
2023-05-07T00:22:19.634Z,23.88
2023-05-07T00:22:33.655Z,25.65
2023-05-07T00:22:46.188Z,27.02
2023-05-07T00:22:58.808Z,27.30
2023-05-07T00:23:11.411Z,25.85
2023-05-07T00:23:24.273Z,25.33
2023-05-07T00:23:36.782Z,26.45
2023-05-07T00:23:49.460Z,24.58
2023-05-07T00:24:02.082Z,23.17
2023-05-07T00:24:15.585Z,23.52
2023-05-07T00:24:28.379Z,24.67
2023-05-07T00:24:40.903Z,24.95
2023-05-07T00:24:53.742Z,24.63
2023-05-07T00:25:07.056Z,25.08
2023-05-07T00:25:20.774Z,23.77
2023-05-07T00:25:33.308Z,24.23
2023-05-07T00:25:45.822Z,25.85
2023-05-07T00:25:59.352Z,26.77
2023-05-07T00:26:11.839Z,26.38
2023-05-07T00:26:24.375Z,26.05
2023-05-07T00:26:36.883Z,25.52
2023-05-07T00:26:49.490Z,24.88
2023-05-07T00:27:01.970Z,25.00
2023-05-07T00:27:14.529Z,24.92
2023-05-07T00:27:27.160Z,24.77
2023-05-07T00:27:40.844Z,26.40
2023-05-07T00:27:53.319Z,27.80
2023-05-07T00:28:05.845Z,28.98
2023-05-07T00:28:18.680Z,30.08
2023-05-07T00:28:31.321Z,29.65
2023-05-07T00:28:43.807Z,28.55
2023-05-07T00:28:57.331Z,27.95
2023-05-07T00:29:09.823Z,28.55
2023-05-07T00:29:22.367Z,29.95
2023-05-07T00:29:34.907Z,29.40
2023-05-07T00:29:47.407Z,28.38
2023-05-07T00:29:59.929Z,27.50
2023-05-07T00:30:13.225Z,28.20
2023-05-07T00:30:26.810Z,27.70
2023-05-07T00:30:39.380Z,26.48
2023-05-07T00:30:51.915Z,26.63
2023-05-07T00:31:04.559Z,26.63
2023-05-07T00:31:17.135Z,27.92
2023-05-07T00:31:29.712Z,28.30
2023-05-07T00:31:43.664Z,28.32
2023-05-07T00:31:56.890Z,28.52
2023-05-07T00:32:10.016Z,28.40
2023-05-07T00:32:23.716Z,28.15
2023-05-07T00:32:36.462Z,32.30
2023-05-07T00:32:50.149Z,41.28
2023-05-07T00:33:02.831Z,48.08
2023-05-07T00:33:15.424Z,49.35
2023-05-07T00:33:27.943Z,48.85
2023-05-07T00:33:41.692Z,51.33
2023-05-07T00:33:54.197Z,47.80
2023-05-07T00:34:06.992Z,41.97
2023-05-07T00:34:21.259Z,37.78
2023-05-07T00:34:33.787Z,32.90
2023-05-07T00:34:46.401Z,28.17
2023-05-07T00:34:58.959Z,27.13
2023-05-07T00:35:12.624Z,32.88
2023-05-07T00:35:25.504Z,38.28
2023-05-07T00:35:38.345Z,37.15
2023-05-07T00:35:51.170Z,31.15
2023-05-07T00:36:04.101Z,26.73
2023-05-07T00:36:16.635Z,24.60
2023-05-07T00:36:31.264Z,25.55
2023-05-07T00:36:43.764Z,27.00
2023-05-07T00:36:56.279Z,26.63
2023-05-07T00:37:09.846Z,26.95
2023-05-07T00:37:22.359Z,28.80
2023-05-07T00:37:35.177Z,31.20
2023-05-07T00:37:47.647Z,37.30
2023-05-07T00:38:00.187Z,39.65
2023-05-07T00:38:13.798Z,36.72
2023-05-07T00:38:26.380Z,32.28
2023-05-07T00:38:38.898Z,31.75
2023-05-07T00:38:51.444Z,31.17
2023-05-07T00:39:04.733Z,29.42
2023-05-07T00:39:17.675Z,28.55
2023-05-07T00:39:30.207Z,27.58
2023-05-07T00:39:42.742Z,27.65
2023-05-07T00:39:56.492Z,27.58
2023-05-07T00:40:10.072Z,25.83
2023-05-07T00:40:22.999Z,26.52
2023-05-07T00:40:35.898Z,27.70
2023-05-07T00:40:48.451Z,27.70
2023-05-07T00:41:01.041Z,26.75
2023-05-07T00:41:14.574Z,24.85
2023-05-07T00:41:27.427Z,23.50
2023-05-07T00:41:39.993Z,23.50
2023-05-07T00:41:52.550Z,23.17
2023-05-07T00:42:05.345Z,23.08
2023-05-07T00:42:17.901Z,24.52
2023-05-07T00:42:30.628Z,24.65
2023-05-07T00:42:47.932Z,24.40
2023-05-07T00:43:01.554Z,23.70
2023-05-07T00:43:14.408Z,22.98
2023-05-07T00:43:28.514Z,24.02
2023-05-07T00:43:41.043Z,23.42
2023-05-07T00:43:53.675Z,25.15
2023-05-07T00:44:06.436Z,25.33
2023-05-07T00:44:20.145Z,24.27
2023-05-07T00:44:32.705Z,25.88
2023-05-07T00:44:45.281Z,28.38
2023-05-07T00:44:57.811Z,27.17
2023-05-07T00:45:11.836Z,26.42
2023-05-07T00:45:27.226Z,25.13
2023-05-07T00:45:40.130Z,25.90
2023-05-07T00:45:52.897Z,26.40
2023-05-07T00:46:07.595Z,26.70
2023-05-07T00:46:22.021Z,25.35
2023-05-07T00:46:35.319Z,24.92
2023-05-07T00:46:50.963Z,25.40
2023-05-07T00:47:05.898Z,24.92
2023-05-07T00:47:18.572Z,22.73
2023-05-07T00:47:33.361Z,21.58
2023-05-07T00:47:46.029Z,20.23
2023-05-07T00:48:01.070Z,20.75
2023-05-07T00:48:15.350Z,23.42
2023-05-07T00:48:28.428Z,25.55
2023-05-07T00:48:41.408Z,27.27
2023-05-07T00:48:55.740Z,26.95
2023-05-07T00:49:08.372Z,24.05
2023-05-07T00:49:21.213Z,23.83
2023-05-07T00:49:39.641Z,22.45
2023-05-07T00:49:52.777Z,21.00
2023-05-07T00:50:06.737Z,22.13
2023-05-07T00:50:20.657Z,23.65
2023-05-07T00:50:34.842Z,23.90
2023-05-07T00:50:48.768Z,23.08
2023-05-07T00:51:01.325Z,22.05
2023-05-07T00:51:14.090Z,21.83
2023-05-07T00:51:28.362Z,21.35
2023-05-07T00:51:41.196Z,21.20
2023-05-07T00:51:53.922Z,22.35
2023-05-07T00:52:09.340Z,21.40
2023-05-07T00:52:24.965Z,20.92
2023-05-07T00:52:38.661Z,20.90
2023-05-07T00:52:51.385Z,19.63
2023-05-07T00:53:05.228Z,19.42
2023-05-07T00:53:17.792Z,19.58
2023-05-07T00:53:31.434Z,19.85
2023-05-07T00:53:45.615Z,20.02
2023-05-07T00:53:58.297Z,20.17
2023-05-07T00:54:11.072Z,21.33
2023-05-07T00:54:23.614Z,21.20
2023-05-07T00:54:36.933Z,20.33
2023-05-07T00:54:49.901Z,19.88
2023-05-07T00:55:06.036Z,19.70
2023-05-07T00:55:19.151Z,20.85
2023-05-07T00:55:31.815Z,20.10
2023-05-07T00:55:45.480Z,20.08
2023-05-07T00:55:58.304Z,21.02
2023-05-07T00:56:11.061Z,22.95
2023-05-07T00:56:24.757Z,24.08
2023-05-07T00:56:37.711Z,21.77
2023-05-07T00:56:50.533Z,21.65
2023-05-07T00:57:03.873Z,21.92
2023-05-07T00:57:18.049Z,24.00
2023-05-07T00:57:30.843Z,25.88
2023-05-07T00:57:43.600Z,24.75
2023-05-07T00:57:56.620Z,24.42
2023-05-07T00:58:09.663Z,23.52
2023-05-07T00:58:23.050Z,20.95
2023-05-07T00:58:36.378Z,21.17
2023-05-07T00:58:50.338Z,21.73
2023-05-07T00:59:03.289Z,21.63
2023-05-07T00:59:16.224Z,21.73
2023-05-07T00:59:29.021Z,21.67
2023-05-07T00:59:42.672Z,22.90
2023-05-07T00:59:55.325Z,23.00
2023-05-07T01:00:10.033Z,22.27
2023-05-07T01:00:22.797Z,22.00
2023-05-07T01:00:35.585Z,21.10
2023-05-07T01:00:49.192Z,21.62
2023-05-07T01:01:01.997Z,21.20
2023-05-07T01:01:16.918Z,19.95
2023-05-07T01:01:29.790Z,20.42
2023-05-07T01:01:42.523Z,20.63
2023-05-07T01:01:56.541Z,21.58
2023-05-07T01:02:10.562Z,22.92
2023-05-07T01:02:23.116Z,23.17
2023-05-07T01:02:36.278Z,22.27
2023-05-07T01:02:49.221Z,22.20
2023-05-07T01:03:02.292Z,21.98
2023-05-07T01:03:15.482Z,20.48
2023-05-07T01:03:28.529Z,21.77
2023-05-07T01:03:42.725Z,21.98
2023-05-07T01:03:56.107Z,22.83
2023-05-07T01:04:09.185Z,23.27
2023-05-07T01:04:22.273Z,22.88
2023-05-07T01:04:35.455Z,23.85
2023-05-07T01:04:48.282Z,23.30
2023-05-07T01:05:02.926Z,23.15
2023-05-07T01:05:18.184Z,22.35
2023-05-07T01:05:31.775Z,22.27
2023-05-07T01:05:47.231Z,22.83
2023-05-07T01:06:01.952Z,22.25
2023-05-07T01:06:17.786Z,22.85
2023-05-07T01:06:34.207Z,23.08
2023-05-07T01:06:48.089Z,21.45
2023-05-07T01:07:02.774Z,21.13
2023-05-07T01:07:16.322Z,22.00
2023-05-07T01:07:29.635Z,22.75
2023-05-07T01:07:43.565Z,23.23
2023-05-07T01:07:57.995Z,23.95
2023-05-07T01:08:11.581Z,23.75
2023-05-07T01:08:27.617Z,22.63
2023-05-07T01:08:40.965Z,22.48
2023-05-07T01:08:54.071Z,21.58
2023-05-07T01:09:06.968Z,22.15
2023-05-07T01:09:21.073Z,24.40
2023-05-07T01:09:36.431Z,22.90
2023-05-07T01:09:50.244Z,19.98
2023-05-07T01:10:04.171Z,21.00
2023-05-07T01:10:17.709Z,22.67
2023-05-07T01:10:31.607Z,22.05
2023-05-07T01:10:45.245Z,21.10
2023-05-07T01:10:58.734Z,21.20
2023-05-07T01:11:12.382Z,22.45
2023-05-07T01:11:26.567Z,22.42
2023-05-07T01:11:40.870Z,21.40
2023-05-07T01:11:54.372Z,21.30
2023-05-07T01:12:08.373Z,21.73
2023-05-07T01:12:21.408Z,20.50
2023-05-07T01:12:35.123Z,21.75
2023-05-07T01:12:49.587Z,21.75
2023-05-07T01:13:03.955Z,20.10
2023-05-07T01:13:17.495Z,20.38
2023-05-07T01:13:30.844Z,20.35
2023-05-07T01:13:44.153Z,19.95
2023-05-07T01:13:57.863Z,19.73
2023-05-07T01:14:10.928Z,19.42
2023-05-07T01:14:24.514Z,19.80
2023-05-07T01:14:37.285Z,21.95
2023-05-07T01:14:50.830Z,23.00
2023-05-07T01:15:04.812Z,22.63
2023-05-07T01:15:18.961Z,21.10
2023-05-07T01:15:31.488Z,21.42
2023-05-07T01:15:44.585Z,21.83
2023-05-07T01:15:57.217Z,20.60
2023-05-07T01:16:11.587Z,20.02
2023-05-07T01:16:24.316Z,20.25
2023-05-07T01:16:37.899Z,19.58
2023-05-07T01:16:52.112Z,19.38
2023-05-07T01:17:06.511Z,19.67
2023-05-07T01:17:19.202Z,21.02
2023-05-07T01:17:34.819Z,21.35
2023-05-07T01:17:48.529Z,22.23
2023-05-07T01:18:01.273Z,21.23
2023-05-07T01:18:14.330Z,20.02
2023-05-07T01:18:27.659Z,19.48
2023-05-07T01:18:40.576Z,20.42
2023-05-07T01:18:53.116Z,20.27
2023-05-07T01:19:06.419Z,20.80
2023-05-07T01:19:20.963Z,22.38
2023-05-07T01:19:33.501Z,23.00
2023-05-07T01:19:46.052Z,22.13
2023-05-07T01:19:58.614Z,20.60
2023-05-07T01:20:12.213Z,20.08
2023-05-07T01:20:26.408Z,20.98
2023-05-07T01:20:39.390Z,23.70
2023-05-07T01:20:51.923Z,24.27
2023-05-07T01:21:06.179Z,22.75
2023-05-07T01:21:19.059Z,21.08
2023-05-07T01:21:35.159Z,21.50
2023-05-07T01:21:49.706Z,22.50
2023-05-07T01:22:06.174Z,21.45
2023-05-07T01:22:29.853Z,20.98
2023-05-07T01:22:44.173Z,21.20
2023-05-07T01:22:58.468Z,21.60
2023-05-07T01:23:12.890Z,22.50
2023-05-07T01:23:26.275Z,20.92
2023-05-07T01:23:40.840Z,20.73
2023-05-07T01:23:54.771Z,20.55
2023-05-07T01:24:08.890Z,20.73
2023-05-07T01:24:22.273Z,21.65
2023-05-07T01:24:37.484Z,21.95
2023-05-07T01:24:50.588Z,22.42
2023-05-07T01:25:04.443Z,22.25
2023-05-07T01:25:17.375Z,22.52
2023-05-07T01:25:30.307Z,20.83
2023-05-07T01:25:43.896Z,20.80
2023-05-07T01:25:56.657Z,20.30
2023-05-07T01:26:09.196Z,20.58
2023-05-07T01:26:23.145Z,20.25
2023-05-07T01:26:35.675Z,21.60
2023-05-07T01:26:48.194Z,20.60
2023-05-07T01:27:02.421Z,20.42
2023-05-07T01:27:15.085Z,20.88
2023-05-07T01:27:28.609Z,20.60
2023-05-07T01:27:41.219Z,20.65
2023-05-07T01:27:53.768Z,20.58
2023-05-07T01:28:06.844Z,19.80
2023-05-07T01:28:19.681Z,20.15
2023-05-07T01:28:32.206Z,20.63
2023-05-07T01:28:44.719Z,22.13
2023-05-07T01:28:58.259Z,22.98
2023-05-07T01:29:11.010Z,22.75
2023-05-07T01:29:23.534Z,21.17
2023-05-07T01:29:36.233Z,20.92
2023-05-07T01:29:48.798Z,22.08
2023-05-07T01:30:01.382Z,22.45
2023-05-07T01:30:14.430Z,21.75
2023-05-07T01:30:29.144Z,21.77
2023-05-07T01:30:44.105Z,20.90
2023-05-07T01:31:02.642Z,21.40
2023-05-07T01:31:17.842Z,22.52
2023-05-07T01:31:30.979Z,22.08
2023-05-07T01:31:45.335Z,21.15
2023-05-07T01:32:01.484Z,20.85
2023-05-07T01:32:15.577Z,19.63
2023-05-07T01:32:34.048Z,20.33
2023-05-07T01:32:51.977Z,23.90
2023-05-07T01:33:07.968Z,22.85
2023-05-07T01:33:23.586Z,23.10
2023-05-07T01:33:39.141Z,23.92
2023-05-07T01:33:53.261Z,22.60
2023-05-07T01:34:08.022Z,20.95
2023-05-07T01:34:22.577Z,23.23
2023-05-07T01:34:37.694Z,22.92
2023-05-07T01:34:52.015Z,20.33
2023-05-07T01:35:08.535Z,19.95
2023-05-07T01:35:24.847Z,18.67
2023-05-07T01:35:41.679Z,18.52
2023-05-07T01:35:55.261Z,19.17
2023-05-07T01:36:10.173Z,18.15
2023-05-07T01:36:26.973Z,17.65
2023-05-07T01:36:40.965Z,19.02
2023-05-07T01:36:56.309Z,19.40
2023-05-07T01:37:09.208Z,19.23
2023-05-07T01:37:23.082Z,19.42
2023-05-07T01:37:37.213Z,21.30
2023-05-07T01:37:50.939Z,20.77
2023-05-07T01:38:05.560Z,19.27
2023-05-07T01:38:20.202Z,19.10
2023-05-07T01:38:33.557Z,17.85
2023-05-07T01:38:47.057Z,19.23
2023-05-07T01:39:00.816Z,20.52
2023-05-07T01:39:14.113Z,19.15
2023-05-07T01:39:28.571Z,18.20
2023-05-07T01:39:43.061Z,19.55
2023-05-07T01:39:56.557Z,19.42
2023-05-07T01:40:10.756Z,18.95
2023-05-07T01:40:23.911Z,18.30
2023-05-07T01:40:36.626Z,18.67
2023-05-07T01:40:49.268Z,18.77
2023-05-07T01:41:02.467Z,19.20
2023-05-07T01:41:15.189Z,18.77
2023-05-07T01:41:28.853Z,18.88
2023-05-07T01:41:41.525Z,18.33
2023-05-07T01:41:55.976Z,19.40
2023-05-07T01:42:08.815Z,19.38
2023-05-07T01:42:21.374Z,18.23
2023-05-07T01:42:34.680Z,18.45
2023-05-07T01:42:47.504Z,18.88
2023-05-07T01:43:00.277Z,19.35
2023-05-07T01:43:14.262Z,20.80
2023-05-07T01:43:27.130Z,20.38
2023-05-07T01:43:42.551Z,19.00
2023-05-07T01:43:56.423Z,19.52
2023-05-07T01:44:11.211Z,20.27
2023-05-07T01:44:24.422Z,20.67
2023-05-07T01:44:38.141Z,20.17
2023-05-07T01:44:50.741Z,20.55
2023-05-07T01:45:03.738Z,21.13
2023-05-07T01:45:16.272Z,21.38
2023-05-07T01:45:29.269Z,21.85
2023-05-07T01:45:42.203Z,20.40
2023-05-07T01:45:55.574Z,18.63
2023-05-07T01:46:10.970Z,17.85
2023-05-07T01:46:23.887Z,18.10
2023-05-07T01:46:36.898Z,18.42
2023-05-07T01:46:50.154Z,19.50
2023-05-07T01:47:03.978Z,19.05
2023-05-07T01:47:18.061Z,18.95
2023-05-07T01:47:31.556Z,19.92
2023-05-07T01:47:46.019Z,19.67
2023-05-07T01:47:59.710Z,19.70
2023-05-07T01:48:15.365Z,18.13
2023-05-07T01:48:28.453Z,18.30
2023-05-07T01:48:41.844Z,19.48
2023-05-07T01:48:54.932Z,20.52
2023-05-07T01:49:07.548Z,19.23
2023-05-07T01:49:21.248Z,17.90
2023-05-07T01:49:33.828Z,17.48
2023-05-07T01:49:46.452Z,18.05
2023-05-07T01:49:59.369Z,18.77
2023-05-07T01:50:12.730Z,19.55
2023-05-07T01:50:26.980Z,18.48
2023-05-07T01:50:40.465Z,18.38
2023-05-07T01:50:54.542Z,18.38
2023-05-07T01:51:08.391Z,18.83
2023-05-07T01:51:22.250Z,17.83
2023-05-07T01:51:35.560Z,18.88
2023-05-07T01:51:48.270Z,19.70
2023-05-07T01:52:01.265Z,19.25
2023-05-07T01:52:14.035Z,18.77
2023-05-07T01:52:26.586Z,19.38
2023-05-07T01:52:41.517Z,19.35
2023-05-07T01:52:54.434Z,18.25
2023-05-07T01:53:07.538Z,17.42
2023-05-07T01:53:20.153Z,18.05
2023-05-07T01:53:37.595Z,18.10
2023-05-07T01:53:51.889Z,18.50
2023-05-07T01:54:04.655Z,18.08
2023-05-07T01:54:18.646Z,17.23
2023-05-07T01:54:31.572Z,17.63
2023-05-07T01:54:44.081Z,17.58
2023-05-07T01:54:56.937Z,17.98
2023-05-07T01:55:10.062Z,18.85
2023-05-07T01:55:22.685Z,18.30
2023-05-07T01:55:35.285Z,19.05
2023-05-07T01:55:48.827Z,19.40
2023-05-07T01:56:01.629Z,19.13
2023-05-07T01:56:14.467Z,18.42
2023-05-07T01:56:27.064Z,18.30
2023-05-07T01:56:39.640Z,17.38
2023-05-07T01:56:52.205Z,17.80
2023-05-07T01:57:04.762Z,18.60
2023-05-07T01:57:18.536Z,18.00
2023-05-07T01:57:31.225Z,17.92
2023-05-07T01:57:44.020Z,17.10
2023-05-07T01:57:56.604Z,18.08
2023-05-07T01:58:09.210Z,19.70
2023-05-07T01:58:21.790Z,19.20
2023-05-07T01:58:34.634Z,19.05
2023-05-07T01:58:47.401Z,17.17
2023-05-07T01:59:00.932Z,18.65
2023-05-07T01:59:14.711Z,20.00
2023-05-07T01:59:27.283Z,19.15
2023-05-07T01:59:39.873Z,21.05
2023-05-07T01:59:52.486Z,20.90
2023-05-07T02:00:06.360Z,19.55
2023-05-07T02:00:20.055Z,17.92
2023-05-07T02:00:33.933Z,17.55
2023-05-07T02:00:46.671Z,17.63
2023-05-07T02:00:59.227Z,17.60
2023-05-07T02:01:11.726Z,18.10
2023-05-07T02:01:24.476Z,19.42
2023-05-07T02:01:37.274Z,18.40
2023-05-07T02:01:50.011Z,18.50
2023-05-07T02:02:03.654Z,18.20
2023-05-07T02:02:16.633Z,19.50
2023-05-07T02:02:29.670Z,19.38
2023-05-07T02:02:42.981Z,18.80
2023-05-07T02:02:56.189Z,19.40
2023-05-07T02:03:08.890Z,21.25
2023-05-07T02:03:21.793Z,20.30
2023-05-07T02:03:35.543Z,18.15
2023-05-07T02:03:48.348Z,17.50
2023-05-07T02:04:01.074Z,17.85
2023-05-07T02:04:13.725Z,17.88
2023-05-07T02:04:26.625Z,18.70
2023-05-07T02:04:39.294Z,18.48
2023-05-07T02:04:51.872Z,18.30
2023-05-07T02:05:05.977Z,20.48
2023-05-07T02:05:18.543Z,21.15
2023-05-07T02:05:32.129Z,19.48
2023-05-07T02:05:45.011Z,18.45
2023-05-07T02:05:57.558Z,18.70
2023-05-07T02:06:10.654Z,19.60
2023-05-07T02:06:23.309Z,18.73
2023-05-07T02:06:36.041Z,17.98
2023-05-07T02:06:48.740Z,18.63
2023-05-07T02:07:02.466Z,18.00
2023-05-07T02:07:15.041Z,17.80
2023-05-07T02:07:27.619Z,19.02
2023-05-07T02:07:41.546Z,17.95
2023-05-07T02:07:54.139Z,17.90
2023-05-07T02:08:06.758Z,19.38
2023-05-07T02:08:19.399Z,19.30
2023-05-07T02:08:32.055Z,18.15
2023-05-07T02:08:45.559Z,18.35
2023-05-07T02:08:58.065Z,18.77
2023-05-07T02:09:10.628Z,18.80
2023-05-07T02:09:23.976Z,18.95
2023-05-07T02:09:36.837Z,18.60
2023-05-07T02:09:49.658Z,18.20
2023-05-07T02:10:02.266Z,18.30
2023-05-07T02:10:15.826Z,17.83
2023-05-07T02:10:28.419Z,17.73
2023-05-07T02:10:41.258Z,16.70
2023-05-07T02:10:54.940Z,17.08
2023-05-07T02:11:07.542Z,17.85
2023-05-07T02:11:20.091Z,18.23
2023-05-07T02:11:33.684Z,18.23
2023-05-07T02:11:46.237Z,19.23
2023-05-07T02:11:58.795Z,19.27
2023-05-07T02:12:11.298Z,18.50
2023-05-07T02:12:24.155Z,20.33
2023-05-07T02:12:36.761Z,20.27
2023-05-07T02:12:49.426Z,18.23
2023-05-07T02:13:03.326Z,19.15
2023-05-07T02:13:15.987Z,18.95
2023-05-07T02:13:31.010Z,17.83
2023-05-07T02:13:43.588Z,18.48
2023-05-07T02:13:56.350Z,18.85
2023-05-07T02:14:08.882Z,19.00
2023-05-07T02:14:21.639Z,19.17
2023-05-07T02:14:35.136Z,19.27
2023-05-07T02:14:47.673Z,19.60
2023-05-07T02:15:00.225Z,18.92
2023-05-07T02:15:12.811Z,18.00
2023-05-07T02:15:25.719Z,17.48
2023-05-07T02:15:38.465Z,17.73
2023-05-07T02:15:51.677Z,18.10
2023-05-07T02:16:07.334Z,19.27
2023-05-07T02:16:21.008Z,19.15
2023-05-07T02:16:33.684Z,18.17
2023-05-07T02:16:46.313Z,18.02
2023-05-07T02:16:58.948Z,20.42
2023-05-07T02:17:11.768Z,20.80
2023-05-07T02:17:24.464Z,20.35
2023-05-07T02:17:38.458Z,18.85
2023-05-07T02:18:02.362Z,17.83
2023-05-07T02:18:14.926Z,19.35
2023-05-07T02:18:27.716Z,19.52
2023-05-07T02:18:40.271Z,18.33
2023-05-07T02:18:52.918Z,18.15
2023-05-07T02:19:06.274Z,19.17
2023-05-07T02:19:22.122Z,19.17
2023-05-07T02:19:34.657Z,19.35
2023-05-07T02:19:47.234Z,19.63
2023-05-07T02:19:59.770Z,19.30
2023-05-07T02:20:14.498Z,20.33
2023-05-07T02:20:27.379Z,21.15
2023-05-07T02:20:39.944Z,18.92
2023-05-07T02:20:52.816Z,19.48
2023-05-07T02:21:06.484Z,20.13
2023-05-07T02:21:19.057Z,20.75
2023-05-07T02:21:31.665Z,19.92
2023-05-07T02:21:44.281Z,18.10
2023-05-07T02:21:56.944Z,19.27
2023-05-07T02:22:11.135Z,18.52
2023-05-07T02:22:23.676Z,17.98
2023-05-07T02:22:37.193Z,19.23
2023-05-07T02:22:51.094Z,19.42
2023-05-07T02:23:03.653Z,19.52
2023-05-07T02:23:16.182Z,19.73
2023-05-07T02:23:28.745Z,18.48
2023-05-07T02:23:41.424Z,18.27
2023-05-07T02:23:55.039Z,19.10
2023-05-07T02:24:07.767Z,19.90
2023-05-07T02:24:20.314Z,19.50
2023-05-07T02:24:33.156Z,19.13
2023-05-07T02:24:45.730Z,19.15
2023-05-07T02:24:58.267Z,20.05
2023-05-07T02:25:10.801Z,19.02
2023-05-07T02:25:23.361Z,19.13
2023-05-07T02:25:36.886Z,19.80
2023-05-07T02:25:49.638Z,20.02
2023-05-07T02:26:02.153Z,20.10
2023-05-07T02:26:14.699Z,21.60
2023-05-07T02:26:27.270Z,20.98
2023-05-07T02:26:40.737Z,20.92
2023-05-07T02:26:53.492Z,19.80
2023-05-07T02:27:07.063Z,20.98
2023-05-07T02:27:19.610Z,19.33
2023-05-07T02:27:32.118Z,18.35
2023-05-07T02:27:44.741Z,18.63
2023-05-07T02:27:57.359Z,19.30
2023-05-07T02:28:09.902Z,20.27
2023-05-07T02:28:22.832Z,18.67
2023-05-07T02:28:36.366Z,18.65
2023-05-07T02:28:49.933Z,18.77
2023-05-07T02:29:02.531Z,18.92
2023-05-07T02:29:15.091Z,18.95
2023-05-07T02:29:27.659Z,19.05
2023-05-07T02:29:40.328Z,18.83
2023-05-07T02:29:52.977Z,19.27
2023-05-07T02:30:07.021Z,18.52
2023-05-07T02:30:19.657Z,19.35
2023-05-07T02:30:33.986Z,19.58
2023-05-07T02:30:46.522Z,19.30
2023-05-07T02:30:59.661Z,18.88
2023-05-07T02:31:12.233Z,17.83
2023-05-07T02:31:24.825Z,17.15
2023-05-07T02:31:37.505Z,18.17
2023-05-07T02:31:51.860Z,18.52
2023-05-07T02:32:06.101Z,20.90
2023-05-07T02:32:18.694Z,20.98
2023-05-07T02:32:31.689Z,18.58
2023-05-07T02:32:44.291Z,19.27
2023-05-07T02:32:56.966Z,20.45
2023-05-07T02:33:09.781Z,18.92
2023-05-07T02:33:22.335Z,18.30
2023-05-07T02:33:37.543Z,17.98
2023-05-07T02:33:50.060Z,17.75
2023-05-07T02:34:02.871Z,17.83
2023-05-07T02:34:15.420Z,17.00
2023-05-07T02:34:28.089Z,17.52
2023-05-07T02:34:40.652Z,19.83
2023-05-07T02:34:53.397Z,20.20
2023-05-07T02:35:06.501Z,20.02
2023-05-07T02:35:20.411Z,20.80
2023-05-07T02:35:33.037Z,19.65
2023-05-07T02:35:46.099Z,22.30
2023-05-07T02:36:05.852Z,21.65
2023-05-07T02:36:18.493Z,16.70
2023-05-07T02:36:31.197Z,17.08
2023-05-07T02:36:45.006Z,17.25
2023-05-07T02:36:57.733Z,18.65
2023-05-07T02:37:10.264Z,18.83
2023-05-07T02:37:22.898Z,17.77
2023-05-07T02:37:35.962Z,18.58
2023-05-07T02:37:48.768Z,21.40
2023-05-07T02:38:02.666Z,20.92
2023-05-07T02:38:16.163Z,19.17
2023-05-07T02:38:28.715Z,17.30
2023-05-07T02:38:41.292Z,17.63
2023-05-07T02:38:53.875Z,18.70
2023-05-07T02:39:06.441Z,18.92
2023-05-07T02:39:19.077Z,18.35
2023-05-07T02:39:31.901Z,18.88
2023-05-07T02:39:45.427Z,19.40
2023-05-07T02:39:57.975Z,18.98
2023-05-07T02:40:12.440Z,18.42
2023-05-07T02:40:25.435Z,17.67
2023-05-07T02:40:40.375Z,18.83
2023-05-07T02:40:52.903Z,19.35
2023-05-07T02:41:05.894Z,19.52
2023-05-07T02:41:19.488Z,19.13
2023-05-07T02:41:32.043Z,19.27
2023-05-07T02:41:44.654Z,19.00
2023-05-07T02:41:57.188Z,19.90
2023-05-07T02:42:09.716Z,19.02
2023-05-07T02:42:22.292Z,19.17
2023-05-07T02:42:34.939Z,19.13
2023-05-07T02:42:48.457Z,20.52
2023-05-07T02:43:01.015Z,18.83
2023-05-07T02:43:13.838Z,18.13
2023-05-07T02:43:26.504Z,19.42
2023-05-07T02:43:39.053Z,19.48
2023-05-07T02:43:51.702Z,18.25
2023-05-07T02:44:05.454Z,20.40
2023-05-07T02:44:17.981Z,20.95
2023-05-07T02:44:32.475Z,19.95
2023-05-07T02:44:45.048Z,19.23
2023-05-07T02:44:57.581Z,18.98
2023-05-07T02:45:11.197Z,19.25
2023-05-07T02:45:23.801Z,19.55
2023-05-07T02:45:37.305Z,19.83
2023-05-07T02:45:49.935Z,19.60
2023-05-07T02:46:04.893Z,19.23
2023-05-07T02:46:18.459Z,19.23
2023-05-07T02:46:31.090Z,18.77
2023-05-07T02:46:43.695Z,18.65
2023-05-07T02:46:56.508Z,18.55
2023-05-07T02:47:10.861Z,19.92
2023-05-07T02:47:23.752Z,19.00
2023-05-07T02:47:36.445Z,18.48
2023-05-07T02:47:50.232Z,18.17
2023-05-07T02:48:02.918Z,19.17
2023-05-07T02:48:15.534Z,20.13
2023-05-07T02:48:28.024Z,19.58
2023-05-07T02:48:40.575Z,19.77
2023-05-07T02:48:53.130Z,19.75
2023-05-07T02:49:07.042Z,18.05
2023-05-07T02:49:19.577Z,18.17
2023-05-07T02:49:32.094Z,19.70
2023-05-07T02:49:44.679Z,19.63
2023-05-07T02:49:57.227Z,19.00
2023-05-07T02:50:10.207Z,18.90
2023-05-07T02:50:23.855Z,19.42
2023-05-07T02:50:36.725Z,20.10
2023-05-07T02:50:49.333Z,19.83
2023-05-07T02:51:02.487Z,19.83
2023-05-07T02:51:15.299Z,19.10
2023-05-07T02:51:28.140Z,18.10
2023-05-07T02:51:40.787Z,17.60
2023-05-07T02:51:53.358Z,18.80
2023-05-07T02:52:07.216Z,18.75